createdAt,value
2019-01-12T00:01:10.755Z,101117.17
2019-01-12T00:03:46.835Z,101114.52
2019-01-12T00:06:20.011Z,101118.60
2019-01-12T00:08:47.582Z,101110.09
2019-01-12T00:11:15.062Z,101110.61
2019-01-12T00:13:42.539Z,101111.26
2019-01-12T00:16:11.217Z,101112.75
2019-01-12T00:18:38.602Z,101109.48
2019-01-12T00:21:06.142Z,101114.90
2019-01-12T00:23:33.663Z,101108.32
2019-01-12T00:26:00.976Z,101105.80
2019-01-12T00:28:28.363Z,101105.81
2019-01-12T00:30:56.149Z,101110.33
2019-01-12T00:33:23.237Z,101102.59
2019-01-12T00:35:51.409Z,101100.77
2019-01-12T00:38:19.003Z,101099.89
2019-01-12T00:40:46.282Z,101106.31
2019-01-12T00:43:13.812Z,101089.90
2019-01-12T00:45:41.938Z,101100.39
2019-01-12T00:48:09.301Z,101095.13
2019-01-12T00:50:37.067Z,101095.96
2019-01-12T00:53:04.994Z,101114.38
2019-01-12T00:55:32.559Z,101116.42
2019-01-12T00:58:00.070Z,101111.86
2019-01-12T01:00:28.395Z,101117.08
2019-01-12T01:02:56.154Z,101118.44
2019-01-12T01:05:23.611Z,101109.80
2019-01-12T01:07:51.161Z,101120.58
2019-01-12T01:10:21.224Z,101119.23
2019-01-12T01:12:48.795Z,101119.91
2019-01-12T01:15:16.964Z,101123.48
2019-01-12T01:17:45.116Z,101121.13
2019-01-12T01:20:13.411Z,101117.54
2019-01-12T01:22:41.050Z,101119.08
2019-01-12T01:25:09.436Z,101122.77
2019-01-12T01:27:37.203Z,101128.17
2019-01-12T01:30:09.326Z,101130.22
2019-01-12T01:32:36.991Z,101129.53
2019-01-12T01:35:05.975Z,101122.62
2019-01-12T01:37:33.819Z,101134.08
2019-01-12T01:40:01.363Z,101133.72
2019-01-12T01:42:29.155Z,101131.84
2019-01-12T01:44:56.721Z,101139.49
2019-01-12T01:47:24.764Z,101141.31
2019-01-12T01:49:52.139Z,101149.05
2019-01-12T01:52:19.400Z,101144.20
2019-01-12T01:54:52.725Z,101146.40
2019-01-12T01:57:17.449Z,101138.94
2019-01-12T01:59:45.169Z,101143.55
2019-01-12T02:02:13.305Z,101144.39
2019-01-12T02:04:40.689Z,101140.84
2019-01-12T02:07:08.308Z,101143.17
2019-01-12T02:09:35.599Z,101141.44
2019-01-12T02:12:03.288Z,101147.84
2019-01-12T02:14:30.563Z,101146.36
2019-01-12T02:16:57.922Z,101147.18
2019-01-12T02:19:25.560Z,101148.53
2019-01-12T02:21:53.153Z,101141.72
2019-01-12T02:24:21.518Z,101139.70
2019-01-12T02:26:56.251Z,101139.70
2019-01-12T02:29:23.945Z,101135.98
2019-01-12T02:31:51.315Z,101126.70
2019-01-12T02:34:18.488Z,101128.38
2019-01-12T02:36:46.126Z,101133.59
2019-01-12T02:39:13.512Z,101134.25
2019-01-12T02:41:41.496Z,101138.13
2019-01-12T02:44:09.122Z,101129.02
2019-01-12T02:46:36.246Z,101131.03
2019-01-12T02:49:04.039Z,101131.91
2019-01-12T02:51:31.869Z,101128.50
2019-01-12T02:53:59.557Z,101127.55
2019-01-12T02:56:27.121Z,101130.83
2019-01-12T02:58:54.885Z,101128.97
2019-01-12T03:01:22.065Z,101123.53
2019-01-12T03:03:49.605Z,101128.25
2019-01-12T03:06:16.860Z,101119.08
2019-01-12T03:08:44.577Z,101120.44
2019-01-12T03:11:12.127Z,101118.05
2019-01-12T03:13:40.115Z,101114.91
2019-01-12T03:16:07.774Z,101116.77
2019-01-12T03:18:35.261Z,101121.48
2019-01-12T03:21:02.931Z,101118.57
2019-01-12T03:23:30.581Z,101122.42
2019-01-12T03:25:58.107Z,101123.12
2019-01-12T03:28:25.583Z,101123.61
2019-01-12T03:30:53.511Z,101118.38
2019-01-12T03:33:20.669Z,101115.47
2019-01-12T03:35:48.006Z,101116.00
2019-01-12T03:38:15.685Z,101113.14
2019-01-12T03:40:43.452Z,101120.86
2019-01-12T03:43:11.260Z,101115.72
2019-01-12T03:45:39.181Z,101114.09
2019-01-12T03:48:06.810Z,101115.14
2019-01-12T03:50:34.875Z,101115.98
2019-01-12T03:53:03.270Z,101113.73
2019-01-12T03:55:30.603Z,101118.43
2019-01-12T03:57:57.967Z,101116.73
2019-01-12T04:00:25.824Z,101116.41
2019-01-12T04:02:53.359Z,101108.49
2019-01-12T04:05:21.069Z,101110.28
2019-01-12T04:07:48.397Z,101099.02
2019-01-12T04:10:16.002Z,101107.60
2019-01-12T04:12:43.528Z,101106.62
2019-01-12T04:15:11.193Z,101093.92
2019-01-12T04:17:39.227Z,101094.66
2019-01-12T04:20:10.377Z,101097.10
2019-01-12T04:22:37.637Z,101089.33
2019-01-12T04:25:05.957Z,101086.07
2019-01-12T04:27:33.260Z,101096.54
2019-01-12T04:30:00.565Z,101085.64
2019-01-12T04:32:27.818Z,101083.64
2019-01-12T04:34:55.589Z,101087.00
2019-01-12T04:37:23.136Z,101084.73
2019-01-12T04:39:50.634Z,101086.41
2019-01-12T04:42:17.877Z,101088.47
2019-01-12T04:44:45.819Z,101084.22
2019-01-12T04:47:13.363Z,101088.09
2019-01-12T04:49:40.761Z,101086.60
2019-01-12T04:52:08.265Z,101079.97
2019-01-12T04:54:36.400Z,101070.80
2019-01-12T04:57:03.718Z,101071.62
2019-01-12T04:59:31.266Z,101071.45
2019-01-12T05:01:58.527Z,101072.46
2019-01-12T05:04:26.123Z,101070.73
2019-01-12T05:06:53.801Z,101076.17
2019-01-12T05:09:21.363Z,101079.97
2019-01-12T05:11:49.352Z,101073.33
2019-01-12T05:14:17.383Z,101073.55
2019-01-12T05:16:45.249Z,101071.84
2019-01-12T05:19:12.751Z,101073.30
2019-01-12T05:21:41.378Z,101071.59
2019-01-12T05:24:08.916Z,101073.14
2019-01-12T05:26:36.555Z,101075.44
2019-01-12T05:29:04.284Z,101074.05
2019-01-12T05:31:31.872Z,101078.20
2019-01-12T05:33:59.896Z,101080.02
2019-01-12T05:36:27.762Z,101083.05
2019-01-12T05:38:55.358Z,101080.53
2019-01-12T05:41:22.598Z,101072.95
2019-01-12T05:43:49.970Z,101084.55
2019-01-12T05:46:17.638Z,101081.20
2019-01-12T05:48:45.328Z,101078.01
2019-01-12T05:51:13.413Z,101078.17
2019-01-12T05:53:40.975Z,101080.50
2019-01-12T05:56:08.234Z,101085.08
2019-01-12T05:58:36.419Z,101089.14
2019-01-12T06:01:04.091Z,101080.37
2019-01-12T06:05:55.338Z,101083.45
2019-01-12T06:08:23.041Z,101088.60
2019-01-12T06:10:51.102Z,101089.47
2019-01-12T06:13:19.042Z,101089.47
2019-01-12T06:15:47.018Z,101088.95
2019-01-12T06:18:14.309Z,101094.34
2019-01-12T06:20:42.309Z,101093.55
2019-01-12T06:23:09.802Z,101100.11
2019-01-12T06:25:37.669Z,101096.84
2019-01-12T06:28:05.322Z,101090.63
2019-01-12T06:30:32.560Z,101096.48
2019-01-12T06:33:00.142Z,101086.98
2019-01-12T06:35:27.437Z,101089.50
2019-01-12T06:37:54.705Z,101097.11
2019-01-12T06:40:22.279Z,101095.11
2019-01-12T06:42:49.928Z,101103.04
2019-01-12T06:45:18.228Z,101100.52
2019-01-12T06:47:45.760Z,101092.53
2019-01-12T06:50:15.949Z,101093.77
2019-01-12T06:52:43.527Z,101098.14
2019-01-12T06:55:11.696Z,101092.58
2019-01-12T06:57:39.080Z,101088.83
2019-01-12T07:00:14.297Z,101089.88
2019-01-12T07:02:41.656Z,101093.73
2019-01-12T07:05:09.323Z,101097.05
2019-01-12T07:07:37.435Z,101092.99
2019-01-12T07:10:06.779Z,101093.99
2019-01-12T07:12:34.425Z,101099.98
2019-01-12T07:15:01.942Z,101097.63
2019-01-12T07:17:29.601Z,101092.91
2019-01-12T07:19:57.066Z,101096.13
2019-01-12T07:22:24.549Z,101099.08
2019-01-12T07:24:52.265Z,101089.67
2019-01-12T07:27:19.655Z,101095.42
2019-01-12T07:29:48.631Z,101096.83
2019-01-12T07:32:16.283Z,101099.20
2019-01-12T07:34:44.519Z,101099.83
2019-01-12T07:37:12.264Z,101100.66
2019-01-12T07:39:40.262Z,101105.56
2019-01-12T07:42:08.297Z,101101.91
2019-01-12T07:44:36.649Z,101102.29
2019-01-12T07:47:04.494Z,101103.83
2019-01-12T07:49:32.001Z,101108.02
2019-01-12T07:52:00.128Z,101108.87
2019-01-12T07:54:27.270Z,101109.67
2019-01-12T07:56:54.846Z,101102.58
2019-01-12T07:59:22.243Z,101104.22
2019-01-12T08:01:50.502Z,101106.27
2019-01-12T08:04:18.219Z,101113.86
2019-01-12T08:06:45.860Z,101103.82
2019-01-12T08:09:13.324Z,101109.28
2019-01-12T08:11:41.036Z,101109.54
2019-01-12T08:14:08.755Z,101103.27
2019-01-12T08:16:36.509Z,101105.58
2019-01-12T08:19:03.952Z,101094.53
2019-01-12T08:21:32.049Z,101098.94
2019-01-12T08:23:59.468Z,101097.56
2019-01-12T08:26:31.143Z,101095.31
2019-01-12T08:28:56.807Z,101087.52
2019-01-12T08:31:24.402Z,101091.44
2019-01-12T08:33:55.365Z,101090.41
2019-01-12T08:36:23.051Z,101078.64
2019-01-12T08:38:50.825Z,101081.13
2019-01-12T08:41:18.414Z,101087.70
2019-01-12T08:43:45.922Z,101093.12
2019-01-12T08:46:13.702Z,101090.74
2019-01-12T08:48:41.432Z,101087.38
2019-01-12T08:51:08.975Z,101080.74
2019-01-12T08:53:36.456Z,101080.84
2019-01-12T08:56:04.310Z,101079.27
2019-01-12T08:58:32.083Z,101075.30
2019-01-12T09:00:59.449Z,101070.67
2019-01-12T09:03:27.217Z,101075.04
2019-01-12T09:05:55.398Z,101069.58
2019-01-12T09:08:23.110Z,101064.63
2019-01-12T09:10:50.623Z,101055.02
2019-01-12T09:13:18.436Z,101064.39
2019-01-12T09:15:46.521Z,101064.81
2019-01-12T09:18:13.765Z,101064.66
2019-01-12T09:20:41.745Z,101058.55
2019-01-12T09:23:09.236Z,101055.31
2019-01-12T09:25:36.500Z,101059.50
2019-01-12T09:28:04.121Z,101058.59
2019-01-12T09:30:31.593Z,101054.06
2019-01-12T09:32:58.678Z,101046.98
2019-01-12T09:35:26.173Z,101042.50
2019-01-12T09:37:53.997Z,101048.44
2019-01-12T09:40:22.487Z,101023.70
2019-01-12T09:42:51.337Z,101021.83
2019-01-12T09:45:19.653Z,101022.03
2019-01-12T09:47:47.321Z,101023.33
2019-01-12T09:50:17.580Z,101022.98
2019-01-12T09:52:45.619Z,101021.62
2019-01-12T09:55:13.509Z,101025.52
2019-01-12T09:57:40.986Z,101028.30
2019-01-12T10:00:14.131Z,101023.91
2019-01-12T10:02:41.873Z,101030.53
2019-01-12T10:05:09.752Z,101013.19
2019-01-12T10:07:37.714Z,101015.07
2019-01-12T10:10:09.712Z,100997.02
2019-01-12T10:12:37.627Z,100985.05
2019-01-12T10:15:06.530Z,100999.31
2019-01-12T10:17:34.102Z,101001.19
2019-01-12T10:20:02.138Z,101002.55
2019-01-12T10:22:33.236Z,101006.46
2019-01-12T10:25:01.171Z,101007.83
2019-01-12T10:27:28.836Z,101013.99
2019-01-12T10:29:56.567Z,100990.13
2019-01-12T10:32:24.035Z,100970.42
2019-01-12T10:34:51.484Z,100970.28
2019-01-12T10:37:19.356Z,100963.22
2019-01-12T10:39:47.496Z,100956.02
2019-01-12T10:42:14.889Z,100938.52
2019-01-12T10:44:42.468Z,100956.48
2019-01-12T10:47:10.299Z,100956.02
2019-01-12T10:49:38.253Z,100952.30
2019-01-12T10:52:05.923Z,100944.53
2019-01-12T10:54:33.316Z,100941.81
2019-01-12T10:57:05.443Z,100935.28
2019-01-12T10:59:29.818Z,100933.04
2019-01-12T11:01:57.200Z,100926.06
2019-01-12T11:04:24.609Z,100925.28
2019-01-12T11:06:52.407Z,100920.02
2019-01-12T11:09:20.351Z,100911.82
2019-01-12T11:11:48.036Z,100909.99
2019-01-12T11:14:15.459Z,100909.25
2019-01-12T11:16:43.998Z,100899.94
2019-01-12T11:19:11.860Z,100900.27
2019-01-12T11:21:39.341Z,100902.38
2019-01-12T11:24:06.959Z,100902.34
2019-01-12T11:26:34.453Z,100898.00
2019-01-12T11:29:01.781Z,100883.51
2019-01-12T11:31:29.220Z,100876.67
2019-01-12T11:33:57.134Z,100869.05
2019-01-12T11:36:25.250Z,100859.55
2019-01-12T11:38:52.590Z,100854.75
2019-01-12T11:41:19.961Z,100846.58
2019-01-12T11:43:47.769Z,100835.55
2019-01-12T11:46:15.078Z,100826.16
2019-01-12T11:48:43.638Z,100822.28
2019-01-12T11:51:12.850Z,100824.86
2019-01-12T11:53:40.228Z,100820.34
2019-01-12T11:56:07.891Z,100812.54
2019-01-12T11:58:35.129Z,100813.54
2019-01-12T12:01:03.490Z,100819.53
2019-01-12T12:03:31.356Z,100804.95
2019-01-12T12:05:58.910Z,100806.00
2019-01-12T12:08:26.289Z,100807.56
2019-01-12T12:10:54.266Z,100815.19
2019-01-12T12:13:22.026Z,100808.50
2019-01-12T12:15:49.532Z,100781.84
2019-01-12T12:18:17.098Z,100783.50
2019-01-12T12:20:44.832Z,100796.39
2019-01-12T12:23:12.531Z,100791.58
2019-01-12T12:25:39.999Z,100786.30
2019-01-12T12:28:07.661Z,100777.70
2019-01-12T12:30:35.293Z,100775.58
2019-01-12T12:33:02.800Z,100762.91
2019-01-12T12:35:30.176Z,100750.31
2019-01-12T12:37:57.895Z,100764.89
2019-01-12T12:40:26.749Z,100753.09
2019-01-12T12:42:55.374Z,100748.22
2019-01-12T12:45:34.943Z,100744.81
2019-01-12T12:48:02.477Z,100737.75
2019-01-12T12:50:30.480Z,100728.66
2019-01-12T12:52:57.746Z,100716.41
2019-01-12T12:55:25.528Z,100706.53
2019-01-12T12:57:52.778Z,100701.25
2019-01-12T13:00:22.868Z,100696.68
2019-01-12T13:02:50.844Z,100676.37
2019-01-12T13:05:18.303Z,100676.81
2019-01-12T13:07:46.135Z,100674.98
2019-01-12T13:10:20.224Z,100679.81
2019-01-12T13:12:49.112Z,100686.97
2019-01-12T13:15:16.852Z,100672.20
2019-01-12T13:17:44.331Z,100680.13
2019-01-12T13:20:14.638Z,100661.98
2019-01-12T13:22:42.790Z,100658.25
2019-01-12T13:25:10.873Z,100653.84
2019-01-12T13:27:39.920Z,100657.21
2019-01-12T13:30:15.423Z,100644.13
2019-01-12T13:32:48.304Z,100649.77
2019-01-12T13:35:15.805Z,100650.03
2019-01-12T13:37:43.615Z,100649.06
2019-01-12T13:40:13.761Z,100641.05
2019-01-12T13:42:41.470Z,100639.56
2019-01-12T13:45:12.733Z,100625.35
2019-01-12T13:47:40.847Z,100624.20
2019-01-12T13:50:10.982Z,100621.48
2019-01-12T13:52:38.818Z,100623.37
2019-01-12T13:55:10.317Z,100613.33
2019-01-12T13:57:37.931Z,100605.53
2019-01-12T14:00:10.794Z,100594.78
2019-01-12T14:02:38.238Z,100597.86
2019-01-12T14:05:06.241Z,100597.64
2019-01-12T14:07:33.613Z,100594.89
2019-01-12T14:10:01.068Z,100586.53
2019-01-12T14:12:28.818Z,100580.80
2019-01-12T14:14:56.878Z,100584.45
2019-01-12T14:17:24.216Z,100571.20
2019-01-12T14:19:52.341Z,100568.75
2019-01-12T14:22:19.658Z,100568.38
2019-01-12T14:24:47.727Z,100563.48
2019-01-12T14:27:16.026Z,100562.33
2019-01-12T14:29:43.286Z,100545.77
2019-01-12T14:32:10.816Z,100553.76
2019-01-12T14:34:37.970Z,100542.23
2019-01-12T14:37:05.420Z,100538.34
2019-01-12T14:39:33.779Z,100537.52
2019-01-12T14:42:01.547Z,100516.44
2019-01-12T14:44:28.711Z,100525.88
2019-01-12T14:46:56.225Z,100523.45
2019-01-12T14:49:24.195Z,100517.95
2019-01-12T14:51:52.388Z,100518.37
2019-01-12T14:54:20.205Z,100520.36
2019-01-12T14:56:48.693Z,100519.08
2019-01-12T14:59:16.225Z,100515.22
2019-01-12T15:01:43.606Z,100498.02
2019-01-12T15:04:11.364Z,100507.61
2019-01-12T15:06:39.102Z,100505.13
2019-01-12T15:09:07.480Z,100496.89
2019-01-12T15:11:34.623Z,100493.61
2019-01-12T15:14:02.370Z,100496.03
2019-01-12T15:16:29.946Z,100485.40
2019-01-12T15:18:57.630Z,100490.72
2019-01-12T15:21:25.222Z,100481.20
2019-01-12T15:23:52.731Z,100477.97
2019-01-12T15:26:20.551Z,100479.84
2019-01-12T15:28:48.207Z,100485.92
2019-01-12T15:31:15.817Z,100474.50
2019-01-12T15:33:45.091Z,100476.30
2019-01-12T15:36:12.677Z,100469.53
2019-01-12T15:38:40.472Z,100473.77
2019-01-12T15:41:07.737Z,100469.31
2019-01-12T15:43:35.436Z,100466.30
2019-01-12T15:46:03.794Z,100460.12
2019-01-12T15:48:31.068Z,100455.02
2019-01-12T15:50:58.681Z,100449.06
2019-01-12T15:53:26.880Z,100456.31
2019-01-12T15:55:54.670Z,100462.66
2019-01-12T15:58:22.037Z,100454.09
2019-01-12T16:00:50.848Z,100458.05
2019-01-12T16:03:18.324Z,100449.82
2019-01-12T16:05:46.387Z,100453.66
2019-01-12T16:08:14.346Z,100454.63
2019-01-12T16:10:42.226Z,100448.05
2019-01-12T16:13:09.486Z,100449.53
2019-01-12T16:15:36.912Z,100452.79
2019-01-12T16:18:04.659Z,100450.89
2019-01-12T16:20:38.013Z,100451.17
2019-01-12T16:23:08.153Z,100436.19
2019-01-12T16:25:37.010Z,100450.08
2019-01-12T16:28:04.489Z,100444.84
2019-01-12T16:30:32.257Z,100447.13
2019-01-12T16:33:00.265Z,100443.09
2019-01-12T16:35:28.758Z,100440.98
2019-01-12T16:37:56.631Z,100432.22
2019-01-12T16:40:25.367Z,100425.45
2019-01-12T16:42:53.145Z,100422.66
2019-01-12T16:45:20.842Z,100422.02
2019-01-12T16:47:48.579Z,100425.78
2019-01-12T16:50:16.378Z,100414.83
2019-01-12T16:52:43.987Z,100406.17
2019-01-12T16:55:13.601Z,100398.96
2019-01-12T16:57:41.190Z,100395.84
2019-01-12T17:00:21.276Z,100391.64
2019-01-12T17:02:48.506Z,100386.53
2019-01-12T17:05:16.000Z,100382.38
2019-01-12T17:07:43.570Z,100381.11
2019-01-12T17:10:14.194Z,100373.36
2019-01-12T17:12:42.007Z,100364.16
2019-01-12T17:15:11.981Z,100371.25
2019-01-12T17:17:40.606Z,100364.48
2019-01-12T17:20:13.153Z,100364.25
2019-01-12T17:22:42.285Z,100353.01
2019-01-12T17:25:10.017Z,100347.77
2019-01-12T17:27:37.806Z,100341.34
2019-01-12T17:30:09.627Z,100343.01
2019-01-12T17:32:38.107Z,100342.99
2019-01-12T17:35:07.520Z,100341.22
2019-01-12T17:37:34.994Z,100338.52
2019-01-12T17:40:03.318Z,100340.91
2019-01-12T17:42:30.741Z,100327.35
2019-01-12T17:44:58.186Z,100333.08
2019-01-12T17:47:25.571Z,100332.04
2019-01-12T17:49:53.316Z,100320.05
2019-01-12T17:52:21.878Z,100316.52
2019-01-12T17:54:49.553Z,100313.70
2019-01-12T17:57:18.361Z,100317.86
2019-01-12T17:59:45.735Z,100310.55
2019-01-12T18:02:13.126Z,100301.50
2019-01-12T18:04:40.966Z,100306.71
2019-01-12T18:07:08.574Z,100307.02
2019-01-12T18:09:37.057Z,100311.70
2019-01-12T18:12:04.580Z,100306.19
2019-01-12T18:14:34.084Z,100297.30
2019-01-12T18:17:01.433Z,100282.31
2019-01-12T18:19:29.337Z,100284.59
2019-01-12T18:21:57.146Z,100278.85
2019-01-12T18:24:24.921Z,100287.73
2019-01-12T18:26:52.843Z,100269.48
2019-01-12T18:29:21.002Z,100270.51
2019-01-12T18:31:51.933Z,100276.97
2019-01-12T18:34:21.314Z,100270.63
2019-01-12T18:36:49.273Z,100275.75
2019-01-12T18:39:17.187Z,100270.41
2019-01-12T18:41:44.451Z,100280.64
2019-01-12T18:44:11.859Z,100272.51
2019-01-12T18:46:40.810Z,100265.30
2019-01-12T18:49:08.282Z,100264.16
2019-01-12T18:51:35.831Z,100252.05
2019-01-12T18:54:03.678Z,100259.26
2019-01-12T18:56:31.022Z,100259.14
2019-01-12T18:58:59.738Z,100256.34
2019-01-12T19:01:27.232Z,100255.07
2019-01-12T19:03:54.627Z,100259.05
2019-01-12T19:06:21.981Z,100265.61
2019-01-12T19:08:49.131Z,100253.41
2019-01-12T19:11:17.136Z,100257.91
2019-01-12T19:13:44.592Z,100259.05
2019-01-12T19:16:12.695Z,100258.42
2019-01-12T19:18:40.892Z,100255.59
2019-01-12T19:21:09.170Z,100250.91
2019-01-12T19:23:36.450Z,100250.39
2019-01-12T19:26:05.478Z,100253.10
2019-01-12T19:28:32.791Z,100253.11
2019-01-12T19:31:01.506Z,100250.17
2019-01-12T19:33:29.011Z,100255.94
2019-01-12T19:35:56.242Z,100257.38
2019-01-12T19:38:23.623Z,100255.29
2019-01-12T19:40:50.898Z,100252.89
2019-01-12T19:43:18.658Z,100256.45
2019-01-12T19:45:46.491Z,100265.52
2019-01-12T19:48:13.985Z,100248.41
2019-01-12T19:50:41.689Z,100253.10
2019-01-12T19:53:09.358Z,100264.47
2019-01-12T19:55:37.141Z,100257.17
2019-01-12T19:58:04.837Z,100248.81
2019-01-12T20:00:33.818Z,100251.44
2019-01-12T20:03:01.877Z,100244.14
2019-01-12T20:05:29.510Z,100243.52
2019-01-12T20:07:57.458Z,100240.59
2019-01-12T20:10:25.581Z,100230.50
2019-01-12T20:12:53.499Z,100226.22
2019-01-12T20:15:23.755Z,100219.22
2019-01-12T20:17:51.807Z,100220.80
2019-01-12T20:20:19.280Z,100215.38
2019-01-12T20:22:47.477Z,100206.10
2019-01-12T20:25:19.479Z,100204.75
2019-01-12T20:27:47.485Z,100200.38
2019-01-12T20:30:42.086Z,100195.26
2019-01-12T20:33:47.936Z,100191.80
2019-01-12T20:37:25.569Z,100185.64
2019-01-12T20:40:46.518Z,100182.63
2019-01-12T20:44:03.354Z,100181.39
2019-01-12T20:47:06.423Z,100183.45
2019-01-12T20:50:18.817Z,100178.67
2019-01-12T20:53:50.089Z,100173.03
2019-01-12T20:56:59.483Z,100171.34
2019-01-12T20:59:59.871Z,100181.14
2019-01-12T21:03:29.987Z,100179.48
2019-01-12T21:06:47.155Z,100178.50
2019-01-12T21:09:42.081Z,100172.34
2019-01-12T21:13:19.649Z,100177.75
2019-01-12T21:15:55.781Z,100179.66
2019-01-12T21:18:23.332Z,100176.09
2019-01-12T21:20:50.591Z,100181.22
2019-01-12T21:23:18.374Z,100181.61
2019-01-12T21:25:45.670Z,100179.45
2019-01-12T21:28:13.350Z,100184.11
2019-01-12T21:30:41.210Z,100182.33
2019-01-12T21:33:08.515Z,100180.47
2019-01-12T21:35:36.076Z,100180.26
2019-01-12T21:38:03.401Z,100179.24
2019-01-12T21:40:30.820Z,100171.94
2019-01-12T21:42:59.034Z,100172.98
2019-01-12T21:45:26.891Z,100174.83
2019-01-12T21:47:55.272Z,100165.51
2019-01-12T21:50:22.946Z,100170.26
2019-01-12T21:52:50.618Z,100167.30
2019-01-12T21:55:19.922Z,100163.48
2019-01-12T21:57:48.199Z,100161.70
2019-01-12T22:00:18.679Z,100161.92
2019-01-12T22:02:46.799Z,100154.29
2019-01-12T22:05:14.955Z,100152.19
2019-01-12T22:07:45.447Z,100147.05
2019-01-12T22:10:19.073Z,100152.32
2019-01-12T22:12:45.551Z,100155.70
2019-01-12T22:15:14.021Z,100149.39
2019-01-12T22:17:41.363Z,100150.59
2019-01-12T22:20:12.569Z,100138.32
2019-01-12T22:22:40.758Z,100135.69
2019-01-12T22:25:08.879Z,100142.77
2019-01-12T22:27:36.608Z,100129.38
2019-01-12T22:30:09.418Z,100129.29
2019-01-12T22:32:37.119Z,100139.23
2019-01-12T22:35:05.328Z,100142.97
2019-01-12T22:37:32.930Z,100140.70
2019-01-12T22:40:00.215Z,100145.38
2019-01-12T22:42:27.629Z,100136.66
2019-01-12T22:44:55.189Z,100139.88
2019-01-12T22:47:22.646Z,100136.72
2019-01-12T22:49:49.882Z,100138.30
2019-01-12T22:52:17.446Z,100125.48
2019-01-12T22:54:44.927Z,100130.98
2019-01-12T22:57:12.211Z,100124.63
2019-01-12T22:59:41.050Z,100123.38
2019-01-12T23:02:10.394Z,100122.85
2019-01-12T23:04:42.267Z,100130.24
2019-01-12T23:07:11.662Z,100128.50
2019-01-12T23:09:41.150Z,100129.30
2019-01-12T23:12:08.641Z,100125.76
2019-01-12T23:14:36.020Z,100135.97
2019-01-12T23:17:04.719Z,100133.98
2019-01-12T23:19:32.363Z,100135.23
2019-01-12T23:22:00.251Z,100128.22
2019-01-12T23:24:27.681Z,100140.95
2019-01-12T23:26:55.130Z,100131.48
2019-01-12T23:29:22.905Z,100124.15
2019-01-12T23:31:50.694Z,100125.31
2019-01-12T23:34:19.729Z,100129.50
2019-01-12T23:36:47.102Z,100120.69
2019-01-12T23:39:14.790Z,100124.15
2019-01-12T23:41:42.515Z,100131.55
2019-01-12T23:44:14.876Z,100125.59
2019-01-12T23:46:39.692Z,100124.90
2019-01-12T23:49:07.137Z,100114.43
2019-01-12T23:51:34.952Z,100114.43
2019-01-12T23:54:02.185Z,100112.63
2019-01-12T23:56:29.386Z,100113.34
2019-01-12T23:58:56.965Z,100103.84
